Time;durP1;ratioP1;P1;durP2;ratioP2;P2;SDS_P1;SDS_P2;PMS_P1;PMS_P2;Temp;Humidity;BMP_temperature;BMP_pressure;BME280_temperature;BME280_humidity;BME280_pressure;Samples;Min_cycle;Max_cycle;Signal;HPM_P1;HPM_P2
2023/11/13 18:56:34;;;;;;;;;57.25;45.50;;;;;;;;5104048;27;13621;-74
2023/11/13 18:58:59;;;;;;;;;49.25;41.25;;;;;;;;5086083;28;11588;-72
2023/11/13 19:01:25;;;;;;;;;50.00;43.25;;;;;;;;5087040;28;11541;-72
2023/11/13 19:04:01;;;;;;;;;50.75;41.75;;;;;;;;5086284;28;8902;-72
2023/11/13 19:06:27;;;;;;;;;49.75;40.50;;;;;;;;5086824;28;11607;-70
2023/11/13 19:08:52;;;;;;;;;50.25;42.00;;;;;;;;5086572;28;11576;-71
2023/11/13 19:11:19;;;;;;;;;47.50;42.25;;;;;;;;5086971;28;9029;-69
2023/11/13 19:13:45;;;;;;;;;52.75;43.25;;;;;;;;5085842;28;9528;-72
2023/11/13 19:16:13;;;;;;;;;49.50;41.50;;;;;;;;5086645;28;11648;-74
2023/11/13 19:18:39;;;;;;;;;59.75;48.75;;;;;;;;5076759;28;11529;-70
2023/11/13 19:21:06;;;;;;;;;58.50;46.25;;;;;;;;5071613;28;11699;-71
2023/11/13 19:23:32;;;;;;;;;53.25;44.75;;;;;;;;5065253;28;9010;-71
2023/11/13 19:26:01;;;;;;;;;54.50;45.00;;;;;;;;5069609;28;11627;-72
2023/11/13 19:28:28;;;;;;;;;53.25;42.25;;;;;;;;5084638;28;11575;-69
2023/11/13 19:30:56;;;;;;;;;53.00;41.75;;;;;;;;5086288;28;12262;-71
2023/11/13 19:33:21;;;;;;;;;51.50;43.75;;;;;;;;5086208;28;9536;-71
2023/11/13 19:35:47;;;;;;;;;56.25;44.75;;;;;;;;5085624;28;11659;-72
2023/11/13 19:38:12;;;;;;;;;52.75;42.75;;;;;;;;5083435;28;8864;-71
2023/11/13 19:40:40;;;;;;;;;58.50;46.75;;;;;;;;5082830;28;8818;-70
2023/11/13 19:43:05;;;;;;;;;54.50;46.00;;;;;;;;5086590;28;8897;-70
2023/11/13 19:45:32;;;;;;;;;55.50;46.50;;;;;;;;5083864;28;11670;-70
2023/11/13 19:48:02;;;;;;;;;55.75;43.50;;;;;;;;5084877;28;8802;-70
2023/11/13 19:50:29;;;;;;;;;56.00;45.00;;;;;;;;5083267;28;11668;-71
2023/11/13 19:52:54;;;;;;;;;55.75;46.00;;;;;;;;5085112;28;11545;-71
2023/11/13 19:55:19;;;;;;;;;57.50;47.25;;;;;;;;5085950;28;11767;-71
2023/11/13 19:57:44;;;;;;;;;58.00;48.00;;;;;;;;5088652;28;9516;-71
2023/11/13 20:00:16;;;;;;;;;57.00;43.25;;;;;;;;5084045;28;8814;-70
2023/11/13 20:02:41;;;;;;;;;54.25;45.00;;;;;;;;5084038;28;9672;-71
2023/11/13 20:05:08;;;;;;;;;55.00;45.75;;;;;;;;5086545;28;11564;-69
2023/11/13 20:07:33;;;;;;;;;50.50;42.50;;;;;;;;5073448;28;9561;-71
2023/11/13 20:09:59;;;;;;;;;47.00;40.75;;;;;;;;5068977;28;11622;-71
2023/11/13 20:12:29;;;;;;;;;48.00;42.00;;;;;;;;5066764;28;8815;-72
2023/11/13 20:14:55;;;;;;;;;58.00;46.75;;;;;;;;5072112;28;8798;-72
2023/11/13 20:17:20;;;;;;;;;56.50;45.00;;;;;;;;5073055;28;11636;-70
2023/11/13 20:19:45;;;;;;;;;54.25;44.75;;;;;;;;5070643;28;8822;-72
2023/11/13 20:22:10;;;;;;;;;52.50;43.00;;;;;;;;5071107;28;8919;-71
2023/11/13 20:24:36;;;;;;;;;56.75;44.25;;;;;;;;5071675;28;8840;-71
2023/11/13 20:27:04;;;;;;;;;58.50;48.25;;;;;;;;5071467;28;8801;-72
2023/11/13 20:29:29;;;;;;;;;55.00;45.75;;;;;;;;5069857;28;8814;-71
2023/11/13 20:31:55;;;;;;;;;55.25;44.75;;;;;;;;5069974;28;11022;-73
2023/11/13 20:34:23;;;;;;;;;55.00;44.00;;;;;;;;5072538;28;8899;-77
2023/11/13 20:36:49;;;;;;;;;54.75;47.25;;;;;;;;5068952;28;8848;-83
2023/11/13 20:39:15;;;;;;;;;59.50;46.25;;;;;;;;5070394;28;11642;-78
2023/11/13 20:41:43;;;;;;;;;57.75;46.75;;;;;;;;5072040;28;11697;-78
2023/11/13 20:44:28;;;;;;;;;53.75;43.00;;;;;;;;5071104;28;8799;-79
2023/11/13 20:46:55;;;;;;;;;47.25;43.00;;;;;;;;5078740;28;11581;-78
2023/11/13 20:49:26;;;;;;;;;58.50;47.00;;;;;;;;5075234;28;11582;-80
2023/11/13 20:51:53;;;;;;;;;50.50;44.75;;;;;;;;5068951;28;11564;-81
2023/11/13 20:54:22;;;;;;;;;57.25;46.00;;;;;;;;5069759;28;11598;-82
2023/11/13 20:56:47;;;;;;;;;53.75;44.75;;;;;;;;5070385;28;11547;-81
2023/11/13 20:59:39;;;;;;;;;42.25;35.50;;;;;;;;5070477;28;11636;-82
2023/11/13 21:02:30;;;;;;;;;55.75;45.50;;;;;;;;5060105;28;8837;-81
2023/11/13 21:04:58;;;;;;;;;51.75;41.25;;;;;;;;5070647;28;11565;-82
2023/11/13 21:07:26;;;;;;;;;61.50;50.00;;;;;;;;5072332;28;11579;-82
2023/11/13 21:09:52;;;;;;;;;51.25;45.00;;;;;;;;5071350;28;11601;-82
2023/11/13 21:12:24;;;;;;;;;54.25;46.00;;;;;;;;5070930;28;11554;-82
2023/11/13 21:14:57;;;;;;;;;51.75;44.25;;;;;;;;5070023;28;8827;-83
2023/11/13 21:17:27;;;;;;;;;57.00;45.25;;;;;;;;5068972;28;12253;-82
2023/11/13 21:19:59;;;;;;;;;51.25;45.00;;;;;;;;5070093;28;11519;-82
2023/11/13 21:22:24;;;;;;;;;55.75;45.75;;;;;;;;5059882;28;12299;-82
2023/11/13 21:24:55;;;;;;;;;50.50;42.00;;;;;;;;5067447;28;11601;-80
2023/11/13 21:27:26;;;;;;;;;59.00;45.25;;;;;;;;5069364;28;8842;-80
2023/11/13 21:32:40;;;;;;;;;55.75;46.00;;;;;;;;5071296;28;11515;-80
2023/11/13 21:35:09;;;;;;;;;57.75;44.75;;;;;;;;5070716;28;11575;-81
2023/11/13 21:37:35;;;;;;;;;50.25;42.25;;;;;;;;5071528;28;8801;-80
2023/11/13 21:40:04;;;;;;;;;54.25;45.50;;;;;;;;5071197;28;11512;-81
2023/11/13 21:42:29;;;;;;;;;53.75;45.00;;;;;;;;5069658;28;11529;-83
2023/11/13 21:44:54;;;;;;;;;49.25;44.50;;;;;;;;5071015;28;12321;-79
2023/11/13 21:47:20;;;;;;;;;46.50;42.00;;;;;;;;5066286;28;9683;-78
2023/11/13 21:49:48;;;;;;;;;44.50;41.00;;;;;;;;5060596;28;8815;-79
2023/11/13 21:52:13;;;;;;;;;51.75;44.00;;;;;;;;5072958;28;8894;-80
2023/11/13 21:54:38;;;;;;;;;49.00;41.00;;;;;;;;5070755;28;12223;-79
2023/11/13 21:57:14;;;;;;;;;49.00;43.00;;;;;;;;5070752;28;8875;-80
2023/11/13 21:59:40;;;;;;;;;54.75;46.50;;;;;;;;5068565;28;8774;-79
2023/11/13 22:02:09;;;;;;;;;44.75;41.00;;;;;;;;5068753;28;11562;-76
2023/11/13 22:04:38;;;;;;;;;55.25;43.75;;;;;;;;5084311;28;11692;-78
2023/11/13 22:07:09;;;;;;;;;48.75;41.00;;;;;;;;5069770;28;11566;-78
2023/11/13 22:09:37;;;;;;;;;44.00;39.00;;;;;;;;5069674;28;11553;-77
2023/11/13 22:12:02;;;;;;;;;54.25;45.50;;;;;;;;5068243;28;11629;-78
2023/11/13 22:14:30;;;;;;;;;47.75;41.25;;;;;;;;5069741;28;11526;-78
2023/11/13 22:17:03;;;;;;;;;46.00;40.50;;;;;;;;5068619;28;8807;-80
2023/11/13 22:19:28;;;;;;;;;45.75;34.50;;;;;;;;5058006;28;11563;-76
2023/11/13 22:21:54;;;;;;;;;40.25;38.25;;;;;;;;5070007;28;11545;-78
2023/11/13 22:24:22;;;;;;;;;44.50;40.00;;;;;;;;5070086;28;8833;-77
2023/11/13 22:26:50;;;;;;;;;47.50;40.25;;;;;;;;5070012;28;8783;-76
2023/11/13 22:29:16;;;;;;;;;49.25;41.00;;;;;;;;5069609;28;11539;-76
2023/11/13 22:31:42;;;;;;;;;40.00;31.50;;;;;;;;5068541;28;11503;-74
2023/11/13 22:34:08;;;;;;;;;47.75;39.00;;;;;;;;5069827;28;11522;-77
2023/11/13 22:36:33;;;;;;;;;45.75;40.50;;;;;;;;5069843;28;9595;-73
2023/11/13 22:39:02;;;;;;;;;44.25;34.50;;;;;;;;5069554;28;11531;-76
2023/11/13 22:41:27;;;;;;;;;42.75;38.00;;;;;;;;5070392;28;8826;-74
2023/11/13 22:43:53;;;;;;;;;37.25;37.25;;;;;;;;5067860;28;11472;-76
2023/11/13 22:46:19;;;;;;;;;44.25;37.75;;;;;;;;5071073;28;8814;-76
2023/11/13 22:48:44;;;;;;;;;44.75;40.50;;;;;;;;5068913;28;8806;-77
2023/11/13 22:51:10;;;;;;;;;36.25;34.00;;;;;;;;5067394;28;11742;-76
2023/11/13 22:53:36;;;;;;;;;32.25;31.75;;;;;;;;5069196;28;8818;-76
2023/11/13 22:56:01;;;;;;;;;32.50;32.50;;;;;;;;5101502;28;8831;-76
2023/11/13 22:58:32;;;;;;;;;38.75;35.00;;;;;;;;5069470;28;8791;-76
2023/11/13 23:00:58;;;;;;;;;31.00;31.00;;;;;;;;5069535;28;8799;-77
2023/11/13 23:03:26;;;;;;;;;37.00;34.75;;;;;;;;5069585;28;11488;-76
2023/11/13 23:05:51;;;;;;;;;35.50;34.00;;;;;;;;5069609;28;8941;-76
2023/11/13 23:08:17;;;;;;;;;34.00;30.25;;;;;;;;5069565;28;11588;-73
2023/11/13 23:10:43;;;;;;;;;33.50;28.50;;;;;;;;5069701;28;8795;-74
2023/11/13 23:13:08;;;;;;;;;36.50;31.25;;;;;;;;5069366;28;11469;-75
2023/11/13 23:15:37;;;;;;;;;32.25;27.50;;;;;;;;5069511;28;8860;-74
2023/11/13 23:18:02;;;;;;;;;32.75;32.75;;;;;;;;5069507;28;8802;-74
2023/11/13 23:20:29;;;;;;;;;32.50;30.50;;;;;;;;5069357;28;11640;-76
2023/11/13 23:22:54;;;;;;;;;36.50;33.75;;;;;;;;5069674;28;8813;-75
2023/11/13 23:25:20;;;;;;;;;37.00;30.50;;;;;;;;5069257;28;11510;-76
2023/11/13 23:27:45;;;;;;;;;32.75;29.50;;;;;;;;5069426;28;8778;-75
2023/11/13 23:30:11;;;;;;;;;36.00;31.50;;;;;;;;5069340;28;8786;-76
2023/11/13 23:32:36;;;;;;;;;32.75;32.75;;;;;;;;5069250;28;8890;-76
2023/11/13 23:35:02;;;;;;;;;36.00;31.00;;;;;;;;5069241;28;8807;-76
2023/11/13 23:37:27;;;;;;;;;29.25;27.75;;;;;;;;5069744;28;8774;-78
2023/11/13 23:39:59;;;;;;;;;26.25;25.75;;;;;;;;5069299;28;8799;-78
2023/11/13 23:42:28;;;;;;;;;27.00;26.50;;;;;;;;5071430;28;8795;-79
2023/11/13 23:44:55;;;;;;;;;26.00;25.75;;;;;;;;5072731;28;11510;-79
2023/11/13 23:47:20;;;;;;;;;23.50;21.75;;;;;;;;5072954;28;11570;-79
2023/11/13 23:49:46;;;;;;;;;27.50;21.50;;;;;;;;5072679;28;11179;-79
